createdAt,value
2022-10-30T00:01:04.354Z,14.33
2022-10-30T00:03:32.043Z,14.17
2022-10-30T00:05:59.655Z,14.43
2022-10-30T00:08:27.229Z,14.63
2022-10-30T00:10:54.956Z,14.19
2022-10-30T00:13:22.726Z,14.31
2022-10-30T00:15:53.498Z,14.43
2022-10-30T00:18:21.715Z,14.12
2022-10-30T00:20:49.725Z,14.04
2022-10-30T00:23:17.724Z,14.29
2022-10-30T00:25:45.172Z,14.30
2022-10-30T00:28:12.640Z,14.22
2022-10-30T00:30:40.234Z,14.40
2022-10-30T00:33:07.756Z,14.29
2022-10-30T00:35:35.340Z,14.59
2022-10-30T00:38:03.475Z,14.41
2022-10-30T00:40:31.262Z,14.34
2022-10-30T00:42:58.779Z,14.56
2022-10-30T00:45:26.303Z,14.40
2022-10-30T00:48:03.374Z,14.20
2022-10-30T00:50:36.714Z,14.22
2022-10-30T00:53:09.029Z,14.06
2022-10-30T00:55:44.021Z,14.30
2022-10-30T00:58:16.336Z,14.34
2022-10-30T01:00:48.815Z,14.29
2022-10-30T01:03:17.205Z,13.92
2022-10-30T01:05:49.179Z,13.87
2022-10-30T01:08:17.107Z,14.00
2022-10-30T01:10:44.686Z,14.30
2022-10-30T01:13:12.459Z,14.38
2022-10-30T01:15:58.329Z,14.43
2022-10-30T01:18:30.925Z,14.26
2022-10-30T01:21:27.445Z,14.05
2022-10-30T01:24:19.467Z,13.47
2022-10-30T01:27:07.330Z,14.01
2022-10-30T01:29:50.741Z,14.29
2022-10-30T01:32:46.677Z,14.06
2022-10-30T01:35:35.358Z,14.11
2022-10-30T01:38:02.816Z,14.05
2022-10-30T01:40:30.407Z,13.75
2022-10-30T01:42:59.134Z,13.99
2022-10-30T01:45:57.520Z,14.15
2022-10-30T01:48:37.071Z,14.17
2022-10-30T01:51:25.758Z,14.12
2022-10-30T01:54:16.324Z,13.81
2022-10-30T01:57:02.132Z,13.90
2022-10-30T01:59:38.860Z,14.15
2022-10-30T02:02:08.022Z,13.93
2022-10-30T02:04:36.426Z,14.04
2022-10-30T02:07:05.836Z,14.02
2022-10-30T02:09:41.471Z,14.25
2022-10-30T02:12:10.052Z,14.40
2022-10-30T02:14:43.269Z,14.06
2022-10-30T02:17:12.539Z,13.92
2022-10-30T02:19:40.024Z,14.06
2022-10-30T02:22:07.694Z,14.09
2022-10-30T02:24:35.445Z,13.91
2022-10-30T02:27:03.308Z,13.94
2022-10-30T02:29:32.561Z,13.88
2022-10-30T02:32:00.095Z,13.83
2022-10-30T02:34:28.032Z,13.77
2022-10-30T02:36:57.309Z,13.67
2022-10-30T02:39:25.118Z,13.64
2022-10-30T02:41:52.719Z,13.87
2022-10-30T02:44:20.283Z,13.85
2022-10-30T02:46:48.458Z,13.77
2022-10-30T02:49:16.034Z,13.56
2022-10-30T02:51:43.726Z,13.40
2022-10-30T02:54:12.845Z,13.64
2022-10-30T02:56:41.116Z,13.81
2022-10-30T02:59:08.775Z,13.64
2022-10-30T03:01:36.586Z,13.84
2022-10-30T03:04:04.522Z,13.77
2022-10-30T03:06:32.120Z,13.75
2022-10-30T03:08:59.886Z,14.01
2022-10-30T03:11:27.542Z,14.07
2022-10-30T03:13:55.995Z,13.85
2022-10-30T03:16:25.704Z,14.00
2022-10-30T03:18:53.405Z,13.93
2022-10-30T03:21:23.533Z,14.08
2022-10-30T03:23:51.636Z,13.79
2022-10-30T03:26:20.529Z,13.98
2022-10-30T03:28:52.953Z,13.88
2022-10-30T03:31:21.600Z,13.79
2022-10-30T03:33:59.873Z,13.73
2022-10-30T03:36:27.516Z,13.95
2022-10-30T03:38:55.258Z,13.72
2022-10-30T03:41:22.827Z,13.53
2022-10-30T03:43:51.146Z,13.68
2022-10-30T03:46:18.671Z,13.75
2022-10-30T03:48:49.778Z,13.69
2022-10-30T03:51:17.363Z,13.59
2022-10-30T03:53:47.523Z,13.36
2022-10-30T03:56:15.144Z,13.18
2022-10-30T03:58:47.614Z,13.50
2022-10-30T04:01:19.492Z,13.46
2022-10-30T04:03:51.049Z,13.70
2022-10-30T04:06:18.809Z,13.74
2022-10-30T04:08:46.351Z,13.78
2022-10-30T04:11:13.920Z,13.60
2022-10-30T04:13:41.402Z,13.54
2022-10-30T04:16:08.926Z,13.72
2022-10-30T04:18:36.650Z,13.61
2022-10-30T04:21:04.409Z,13.63
2022-10-30T04:23:34.313Z,13.40
2022-10-30T04:26:02.980Z,13.23
2022-10-30T04:28:30.604Z,13.60
2022-10-30T04:30:58.086Z,13.55
2022-10-30T04:33:28.777Z,13.37
2022-10-30T04:35:57.858Z,13.23
2022-10-30T04:38:25.582Z,13.24
2022-10-30T04:40:53.091Z,13.44
2022-10-30T04:43:20.613Z,13.54
2022-10-30T04:45:52.858Z,13.36
2022-10-30T04:48:20.403Z,13.38
2022-10-30T04:50:48.498Z,13.17
2022-10-30T04:53:23.103Z,13.24
2022-10-30T04:55:56.901Z,13.55
2022-10-30T04:58:25.734Z,13.65
2022-10-30T05:01:03.356Z,13.43
2022-10-30T05:03:31.970Z,13.46
2022-10-30T05:06:13.257Z,13.74
2022-10-30T05:08:43.064Z,13.85
2022-10-30T05:11:20.534Z,13.26
2022-10-30T05:13:48.399Z,13.17
2022-10-30T05:16:17.573Z,13.25
2022-10-30T05:18:45.276Z,13.46
2022-10-30T05:21:12.837Z,13.46
2022-10-30T05:23:40.595Z,13.57
2022-10-30T05:26:08.695Z,13.42
2022-10-30T05:28:36.336Z,13.54
2022-10-30T05:31:04.797Z,13.59
2022-10-30T05:34:03.203Z,13.73
2022-10-30T05:36:34.272Z,13.75
2022-10-30T05:39:04.567Z,13.90
2022-10-30T05:41:38.257Z,13.61
2022-10-30T05:44:05.878Z,13.79
2022-10-30T05:46:34.465Z,13.77
2022-10-30T05:49:31.343Z,14.06
2022-10-30T05:52:00.443Z,14.08
2022-10-30T05:54:28.569Z,13.74
2022-10-30T05:57:04.691Z,13.86
2022-10-30T05:59:35.426Z,13.96
2022-10-30T06:02:05.015Z,14.26
2022-10-30T06:04:32.881Z,13.93
2022-10-30T06:07:03.749Z,14.15
2022-10-30T06:09:31.328Z,13.62
2022-10-30T06:12:26.247Z,14.18
2022-10-30T06:15:04.152Z,14.31
2022-10-30T06:17:32.256Z,14.24
2022-10-30T06:20:18.565Z,14.25
2022-10-30T06:23:20.950Z,14.33
2022-10-30T06:26:05.459Z,14.27
2022-10-30T06:28:44.838Z,14.37
2022-10-30T06:31:14.477Z,14.39
2022-10-30T06:33:42.085Z,14.75
2022-10-30T06:36:10.567Z,14.47
2022-10-30T06:38:38.121Z,14.60
2022-10-30T06:41:06.071Z,14.94
2022-10-30T06:43:52.337Z,14.25
2022-10-30T06:46:28.828Z,14.05
2022-10-30T06:49:00.374Z,14.14
2022-10-30T06:51:28.555Z,13.86
2022-10-30T06:53:56.102Z,13.91
2022-10-30T06:56:50.597Z,13.75
2022-10-30T06:59:36.398Z,14.17
2022-10-30T07:02:14.442Z,14.25
2022-10-30T07:04:48.581Z,14.65
2022-10-30T07:07:16.502Z,14.89
2022-10-30T07:09:46.054Z,14.63
2022-10-30T07:12:14.886Z,14.59
2022-10-30T07:15:01.182Z,14.67
2022-10-30T07:17:37.764Z,14.93
2022-10-30T07:20:12.009Z,14.94
2022-10-30T07:22:39.601Z,14.98
2022-10-30T07:25:08.701Z,14.86
2022-10-30T07:27:52.353Z,14.61
2022-10-30T07:30:33.195Z,14.56
2022-10-30T07:33:16.561Z,14.41
2022-10-30T07:36:02.852Z,14.44
2022-10-30T07:38:49.889Z,14.88
2022-10-30T07:41:40.363Z,14.80
2022-10-30T07:44:26.157Z,14.44
2022-10-30T07:47:10.415Z,14.36
2022-10-30T07:50:02.767Z,14.94
2022-10-30T07:52:33.672Z,15.05
2022-10-30T07:55:01.572Z,15.27
2022-10-30T07:57:48.429Z,15.34
2022-10-30T08:00:31.815Z,14.97
2022-10-30T08:03:25.112Z,14.99
2022-10-30T08:05:56.231Z,15.04
2022-10-30T08:08:32.512Z,15.25
2022-10-30T08:11:26.123Z,15.39
2022-10-30T08:13:54.707Z,15.60
2022-10-30T08:16:22.184Z,15.53
2022-10-30T08:18:50.577Z,15.26
2022-10-30T08:21:21.552Z,15.47
2022-10-30T08:24:09.494Z,15.35
2022-10-30T08:26:38.005Z,14.72
2022-10-30T08:29:05.728Z,15.39
2022-10-30T08:31:33.244Z,15.40
2022-10-30T08:34:00.721Z,15.50
2022-10-30T08:36:33.236Z,15.68
2022-10-30T08:39:01.054Z,15.71
2022-10-30T08:41:41.220Z,15.27
2022-10-30T08:44:09.253Z,15.64
2022-10-30T08:46:55.300Z,15.70
2022-10-30T08:49:25.075Z,15.53
2022-10-30T08:51:55.654Z,15.59
2022-10-30T08:54:23.077Z,14.97
2022-10-30T08:56:50.985Z,15.33
2022-10-30T08:59:21.222Z,15.34
2022-10-30T09:01:51.209Z,15.66
2022-10-30T09:04:21.969Z,15.91
2022-10-30T09:07:11.918Z,16.01
2022-10-30T09:09:40.605Z,15.40
2022-10-30T09:12:08.586Z,15.67
2022-10-30T09:14:41.863Z,15.93
2022-10-30T09:17:11.089Z,16.00
2022-10-30T09:19:40.034Z,15.02
2022-10-30T09:22:07.842Z,15.30
2022-10-30T09:24:40.287Z,15.84
2022-10-30T09:27:46.607Z,15.45
2022-10-30T09:30:15.129Z,15.71
2022-10-30T09:32:46.177Z,15.48
2022-10-30T09:35:19.489Z,15.68
2022-10-30T09:37:47.063Z,15.47
2022-10-30T09:40:30.217Z,15.33
2022-10-30T09:43:10.149Z,15.81
2022-10-30T09:45:57.091Z,15.56
2022-10-30T09:48:39.001Z,16.04
2022-10-30T09:51:19.557Z,15.57
2022-10-30T09:54:00.783Z,15.95
2022-10-30T09:56:39.488Z,16.00
2022-10-30T09:59:09.993Z,16.06
2022-10-30T10:01:48.144Z,15.74
2022-10-30T10:04:36.915Z,16.15
2022-10-30T10:07:26.467Z,16.54
2022-10-30T10:10:20.313Z,16.01
2022-10-30T10:13:04.572Z,16.57
2022-10-30T10:15:55.170Z,16.54
2022-10-30T10:18:35.719Z,16.87
2022-10-30T10:21:12.706Z,16.84
2022-10-30T10:23:51.550Z,16.74
2022-10-30T10:26:37.533Z,16.24
2022-10-30T10:29:24.698Z,15.36
2022-10-30T10:32:13.749Z,16.47
2022-10-30T10:35:02.534Z,16.08
2022-10-30T10:37:49.473Z,15.88
2022-10-30T10:40:23.249Z,16.44
2022-10-30T10:42:56.560Z,16.78
2022-10-30T10:45:43.120Z,17.08
2022-10-30T10:48:38.571Z,16.44
2022-10-30T10:51:19.838Z,16.56
2022-10-30T10:53:57.279Z,15.91
2022-10-30T10:56:32.269Z,16.71
2022-10-30T10:59:05.122Z,16.60
2022-10-30T11:01:38.263Z,16.18
2022-10-30T11:04:24.298Z,16.61
2022-10-30T11:06:53.441Z,16.86
2022-10-30T11:09:23.397Z,16.59
2022-10-30T11:11:53.484Z,17.22
2022-10-30T11:14:22.060Z,17.12
2022-10-30T11:17:01.401Z,17.29
2022-10-30T11:19:31.501Z,17.35
2022-10-30T11:22:00.945Z,17.51
2022-10-30T11:24:33.411Z,17.07
2022-10-30T11:27:16.852Z,16.66
2022-10-30T11:30:00.197Z,16.92
2022-10-30T11:32:33.140Z,17.48
2022-10-30T11:35:02.632Z,17.36
2022-10-30T11:37:33.286Z,17.07
2022-10-30T11:40:11.492Z,17.52
2022-10-30T11:42:43.687Z,17.28
2022-10-30T11:45:27.898Z,16.95
2022-10-30T11:48:02.430Z,17.47
2022-10-30T11:50:32.489Z,17.42
2022-10-30T11:53:11.896Z,18.26
2022-10-30T11:55:45.471Z,17.81
2022-10-30T11:58:47.482Z,17.99
2022-10-30T12:01:21.178Z,18.03
2022-10-30T12:03:48.803Z,18.14
2022-10-30T12:06:18.993Z,17.51
2022-10-30T12:09:10.819Z,17.55
2022-10-30T12:11:40.190Z,17.07
2022-10-30T12:14:24.393Z,17.80
2022-10-30T12:16:54.838Z,18.20
2022-10-30T12:19:24.726Z,18.19
2022-10-30T12:21:54.594Z,17.86
2022-10-30T12:24:31.390Z,17.71
2022-10-30T12:27:03.868Z,17.67
2022-10-30T12:30:14.788Z,17.88
2022-10-30T12:33:07.599Z,17.21
2022-10-30T12:35:45.529Z,17.08
2022-10-30T12:38:24.978Z,17.82
2022-10-30T12:41:05.975Z,17.65
2022-10-30T12:43:36.468Z,18.12
2022-10-30T12:46:14.698Z,17.81
2022-10-30T12:48:53.171Z,17.07
2022-10-30T12:51:32.352Z,17.87
2022-10-30T12:54:09.865Z,17.57
2022-10-30T12:56:43.080Z,17.42
2022-10-30T12:59:48.138Z,17.71
2022-10-30T13:02:42.830Z,17.74
2022-10-30T13:05:35.989Z,17.60
2022-10-30T13:08:22.482Z,17.50
2022-10-30T13:10:54.271Z,16.86
2022-10-30T13:13:29.162Z,17.75
2022-10-30T13:15:59.323Z,17.65
2022-10-30T13:18:33.723Z,17.56
2022-10-30T13:21:07.203Z,18.22
2022-10-30T13:23:46.880Z,18.26
2022-10-30T13:26:31.183Z,17.94
2022-10-30T13:29:36.204Z,17.89
2022-10-30T13:32:06.741Z,18.01
2022-10-30T13:35:00.711Z,17.67
2022-10-30T13:38:12.493Z,17.64
2022-10-30T13:40:50.345Z,17.63
2022-10-30T13:43:41.711Z,17.41
2022-10-30T13:46:25.450Z,17.23
2022-10-30T13:49:04.713Z,17.45
2022-10-30T13:51:35.113Z,16.75
2022-10-30T13:54:23.333Z,16.66
2022-10-30T13:56:53.440Z,16.91
2022-10-30T14:00:03.058Z,17.15
2022-10-30T14:03:07.891Z,16.88
2022-10-30T14:05:39.057Z,17.42
2022-10-30T14:08:33.422Z,17.16
2022-10-30T14:11:05.642Z,17.20
2022-10-30T14:13:35.816Z,16.57
2022-10-30T14:16:07.546Z,16.69
2022-10-30T14:18:58.587Z,16.58
2022-10-30T14:21:55.487Z,16.40
2022-10-30T14:24:33.450Z,16.68
2022-10-30T14:27:03.729Z,16.69
2022-10-30T14:29:34.498Z,16.60
2022-10-30T14:32:23.259Z,16.91
2022-10-30T14:34:50.853Z,17.00
2022-10-30T14:37:38.254Z,16.53
2022-10-30T14:40:35.007Z,16.74
2022-10-30T14:43:09.921Z,17.10
2022-10-30T14:46:02.333Z,17.11
2022-10-30T14:48:42.538Z,16.79
2022-10-30T14:51:20.336Z,16.97
2022-10-30T14:54:00.905Z,16.85
2022-10-30T14:56:48.089Z,17.02
2022-10-30T14:59:15.717Z,16.49
2022-10-30T15:02:14.428Z,16.58
2022-10-30T15:05:09.550Z,16.36
2022-10-30T15:08:06.881Z,16.35
2022-10-30T15:10:36.461Z,15.99
2022-10-30T15:13:17.634Z,16.01
2022-10-30T15:15:46.482Z,15.89
2022-10-30T15:18:19.994Z,16.12
2022-10-30T15:20:54.906Z,15.98
2022-10-30T15:23:29.853Z,15.82
2022-10-30T15:26:09.801Z,15.86
2022-10-30T15:28:39.164Z,15.87
2022-10-30T15:31:24.978Z,15.88
2022-10-30T15:33:57.905Z,15.93
2022-10-30T15:36:31.068Z,16.13
2022-10-30T15:39:14.868Z,16.06
2022-10-30T15:41:46.628Z,16.15
2022-10-30T15:44:18.913Z,16.10
2022-10-30T15:46:48.790Z,16.31
2022-10-30T15:49:32.638Z,15.56
2022-10-30T15:52:03.199Z,15.79
2022-10-30T15:54:33.030Z,15.20
2022-10-30T15:57:31.800Z,15.61
2022-10-30T15:59:55.132Z,15.91
2022-10-30T16:02:26.151Z,15.29
2022-10-30T16:04:53.929Z,15.72
2022-10-30T16:07:31.476Z,15.88
2022-10-30T16:10:04.806Z,15.90
2022-10-30T16:12:35.165Z,15.81
2022-10-30T16:15:07.897Z,15.78
2022-10-30T16:17:35.599Z,15.84
2022-10-30T16:20:04.127Z,15.73
2022-10-30T16:22:36.999Z,15.90
2022-10-30T16:25:08.926Z,15.83
2022-10-30T16:27:44.568Z,15.58
2022-10-30T16:30:17.015Z,15.40
2022-10-30T16:32:52.747Z,15.30
2022-10-30T16:35:22.967Z,15.30
2022-10-30T16:37:51.065Z,15.70
2022-10-30T16:40:25.801Z,15.88
2022-10-30T16:43:03.320Z,15.68
2022-10-30T16:45:34.077Z,15.87
2022-10-30T16:48:09.275Z,15.60
2022-10-30T16:50:38.655Z,15.56
2022-10-30T16:53:24.495Z,15.72
2022-10-30T16:55:54.237Z,15.52
2022-10-30T16:58:26.727Z,15.34
2022-10-30T17:01:01.645Z,15.44
2022-10-30T17:03:40.643Z,15.71
2022-10-30T17:06:34.277Z,15.84
2022-10-30T17:09:08.258Z,15.65
2022-10-30T17:11:43.816Z,15.49
2022-10-30T17:14:22.531Z,15.36
2022-10-30T17:16:58.032Z,15.38
2022-10-30T17:19:31.511Z,15.23
2022-10-30T17:22:02.440Z,15.37
2022-10-30T17:24:34.845Z,15.05
2022-10-30T17:27:08.622Z,15.18
2022-10-30T17:29:42.172Z,15.27
2022-10-30T17:32:26.940Z,15.21
2022-10-30T17:35:00.466Z,14.90
2022-10-30T17:37:28.885Z,15.13
2022-10-30T17:39:56.324Z,15.26
2022-10-30T17:42:23.877Z,15.33
2022-10-30T17:44:51.482Z,15.28
2022-10-30T17:47:20.245Z,15.35
2022-10-30T17:49:49.476Z,15.21
2022-10-30T17:52:20.622Z,14.96
2022-10-30T17:54:48.700Z,15.02
2022-10-30T17:57:17.092Z,15.24
2022-10-30T17:59:44.942Z,14.78
2022-10-30T18:02:17.108Z,15.27
2022-10-30T18:04:45.893Z,14.91
2022-10-30T18:07:15.212Z,15.21
2022-10-30T18:09:43.757Z,15.05
2022-10-30T18:12:15.523Z,14.96
2022-10-30T18:14:43.328Z,14.72
2022-10-30T18:17:11.566Z,14.69
2022-10-30T18:19:39.801Z,14.10
2022-10-30T18:22:09.487Z,14.85
2022-10-30T18:24:37.327Z,14.31
2022-10-30T18:27:05.082Z,14.64
2022-10-30T18:29:32.726Z,14.66
2022-10-30T18:32:06.869Z,14.50
2022-10-30T18:34:36.836Z,14.65
2022-10-30T18:37:05.211Z,14.78
2022-10-30T18:39:33.578Z,14.84
2022-10-30T18:42:01.382Z,15.09
2022-10-30T18:44:29.029Z,14.68
2022-10-30T18:47:02.552Z,14.74
2022-10-30T18:49:33.380Z,14.72
2022-10-30T18:52:01.224Z,14.61
2022-10-30T18:54:28.742Z,14.78
2022-10-30T18:56:56.502Z,14.69
2022-10-30T18:59:23.961Z,14.47
2022-10-30T19:01:52.521Z,14.65
2022-10-30T19:04:22.414Z,14.51
2022-10-30T19:06:51.102Z,14.46
2022-10-30T19:09:18.901Z,14.85
2022-10-30T19:11:46.771Z,14.54
2022-10-30T19:14:15.991Z,14.61
2022-10-30T19:16:43.757Z,14.54
2022-10-30T19:19:11.766Z,14.37
2022-10-30T19:21:39.326Z,14.43
2022-10-30T19:24:13.786Z,14.41
2022-10-30T19:26:41.475Z,14.61
2022-10-30T19:29:09.060Z,14.38
2022-10-30T19:31:36.926Z,14.57
2022-10-30T19:34:04.717Z,14.05
2022-10-30T19:36:36.148Z,14.60
2022-10-30T19:39:10.710Z,14.55
2022-10-30T19:41:39.927Z,14.62
2022-10-30T19:44:07.598Z,14.61
2022-10-30T19:46:35.882Z,14.31
2022-10-30T19:49:16.668Z,14.18
2022-10-30T19:51:44.744Z,14.38
2022-10-30T19:54:13.057Z,14.30
2022-10-30T19:56:43.066Z,13.82
2022-10-30T19:59:14.260Z,14.05
2022-10-30T20:01:42.107Z,13.87
2022-10-30T20:04:10.139Z,14.11
2022-10-30T20:06:37.817Z,14.29
2022-10-30T20:09:05.494Z,14.10
2022-10-30T20:11:33.327Z,14.36
2022-10-30T20:14:00.785Z,14.35
2022-10-30T20:16:28.488Z,14.29
2022-10-30T20:18:56.170Z,14.41
2022-10-30T20:21:23.774Z,14.27
2022-10-30T20:23:51.238Z,14.07
2022-10-30T20:26:25.135Z,14.15
2022-10-30T20:28:54.846Z,14.27
2022-10-30T20:31:22.433Z,14.21
2022-10-30T20:33:50.259Z,14.03
2022-10-30T20:36:18.018Z,14.24
2022-10-30T20:38:45.817Z,14.04
2022-10-30T20:41:22.501Z,14.04
2022-10-30T20:43:50.583Z,14.01
2022-10-30T20:46:19.347Z,14.06
2022-10-30T20:48:47.185Z,14.47
2022-10-30T20:51:14.783Z,14.44
2022-10-30T20:53:42.507Z,14.32
2022-10-30T20:56:11.658Z,13.96
2022-10-30T20:58:41.459Z,13.95
2022-10-30T21:01:10.369Z,13.78
2022-10-30T21:03:38.007Z,13.90
2022-10-30T21:06:09.601Z,14.09
2022-10-30T21:08:37.744Z,13.71
2022-10-30T21:11:07.764Z,14.03
2022-10-30T21:13:36.393Z,13.48
2022-10-30T21:16:06.339Z,13.85
2022-10-30T21:18:34.486Z,14.05
2022-10-30T21:21:07.471Z,13.90
2022-10-30T21:23:35.325Z,13.87
2022-10-30T21:26:05.654Z,14.16
2022-10-30T21:28:33.171Z,14.06
2022-10-30T21:31:06.187Z,14.12
2022-10-30T21:33:35.563Z,14.20
2022-10-30T21:36:10.884Z,14.22
2022-10-30T21:38:44.579Z,13.90
2022-10-30T21:41:24.864Z,13.88
2022-10-30T21:43:54.809Z,13.83
2022-10-30T21:46:24.844Z,13.87
2022-10-30T21:48:52.867Z,13.86
2022-10-30T21:51:26.480Z,13.80
2022-10-30T21:53:55.636Z,13.70
2022-10-30T21:56:25.952Z,13.81
2022-10-30T21:58:55.830Z,13.81
2022-10-30T22:01:26.897Z,13.69
2022-10-30T22:03:54.499Z,13.53
2022-10-30T22:06:22.796Z,14.07
2022-10-30T22:08:53.126Z,14.21
2022-10-30T22:11:24.901Z,13.91
2022-10-30T22:13:59.476Z,13.85
2022-10-30T22:16:28.529Z,14.22
2022-10-30T22:18:56.350Z,13.21
2022-10-30T22:21:24.371Z,13.66
2022-10-30T22:23:51.851Z,13.57
2022-10-30T22:26:21.609Z,14.14
2022-10-30T22:28:53.878Z,13.73
2022-10-30T22:31:30.211Z,13.74
2022-10-30T22:34:06.150Z,13.98
2022-10-30T22:36:34.371Z,13.64
2022-10-30T22:39:05.670Z,14.03
2022-10-30T22:41:37.568Z,14.04
2022-10-30T22:44:08.657Z,14.38
2022-10-30T22:46:37.140Z,14.27
2022-10-30T22:49:05.036Z,13.97
2022-10-30T22:51:34.869Z,14.09
2022-10-30T22:54:06.360Z,13.65
2022-10-30T22:56:35.832Z,14.00
2022-10-30T22:59:06.688Z,14.01
2022-10-30T23:01:38.052Z,14.00
2022-10-30T23:04:16.447Z,13.90
2022-10-30T23:06:44.523Z,13.79
2022-10-30T23:09:22.218Z,13.85
2022-10-30T23:11:49.797Z,13.86
2022-10-30T23:14:18.940Z,13.45
2022-10-30T23:16:46.515Z,13.31
2022-10-30T23:19:14.445Z,13.60
2022-10-30T23:21:42.037Z,13.49
2022-10-30T23:24:09.556Z,13.90
2022-10-30T23:26:37.113Z,13.96
2022-10-30T23:29:05.378Z,13.62
2022-10-30T23:31:38.611Z,13.91
2022-10-30T23:34:11.250Z,14.06
2022-10-30T23:36:42.453Z,14.04
2022-10-30T23:39:15.115Z,13.93
2022-10-30T23:41:43.090Z,13.88
2022-10-30T23:44:13.938Z,13.72
2022-10-30T23:46:41.827Z,13.82
2022-10-30T23:49:09.467Z,13.69
2022-10-30T23:51:38.233Z,13.82
2022-10-30T23:54:05.822Z,13.94
2022-10-30T23:56:33.383Z,13.51
2022-10-30T23:59:00.889Z,13.77
